sensor_id;sensor_type;location;lat;lon;timestamp;pressure;altitude;pressure_sealevel;temperature
41654;BMP280;30790;52.030;7.110;2022-07-23T00:00:10;101100.22;;;22.96
41654;BMP280;30790;52.030;7.110;2022-07-23T00:02:35;101103.78;;;22.96
41654;BMP280;30790;52.030;7.110;2022-07-23T00:05:01;101110.91;;;22.97
41654;BMP280;30790;52.030;7.110;2022-07-23T00:07:27;101108.25;;;23.02
41654;BMP280;30790;52.030;7.110;2022-07-23T00:09:52;101100.78;;;22.98
41654;BMP280;30790;52.030;7.110;2022-07-23T00:12:18;101108.25;;;23.02
41654;BMP280;30790;52.030;7.110;2022-07-23T00:14:43;101105.53;;;23.02
41654;BMP280;30790;52.030;7.110;2022-07-23T00:17:09;101103.88;;;23.01
41654;BMP280;30790;52.030;7.110;2022-07-23T00:19:34;101097.47;;;22.96
41654;BMP280;30790;52.030;7.110;2022-07-23T00:21:59;101124.81;;;23.12
41654;BMP280;30790;52.030;7.110;2022-07-23T00:24:24;101108.16;;;22.97
41654;BMP280;30790;52.030;7.110;2022-07-23T00:26:50;101104.84;;;22.95
41654;BMP280;30790;52.030;7.110;2022-07-23T00:29:15;101125.56;;;23.08
41654;BMP280;30790;52.030;7.110;2022-07-23T00:31:41;101132.44;;;23.10
41654;BMP280;30790;52.030;7.110;2022-07-23T00:34:06;101107.59;;;22.95
41654;BMP280;30790;52.030;7.110;2022-07-23T00:36:31;101106.19;;;22.93
41654;BMP280;30790;52.030;7.110;2022-07-23T00:38:57;101117.31;;;23.03
41654;BMP280;30790;52.030;7.110;2022-07-23T00:41:22;101112.06;;;23.01
41654;BMP280;30790;52.030;7.110;2022-07-23T00:43:48;101127.47;;;23.07
41654;BMP280;30790;52.030;7.110;2022-07-23T00:46:19;101109.25;;;22.96
41654;BMP280;30790;52.030;7.110;2022-07-23T00:48:44;101127.47;;;23.07
41654;BMP280;30790;52.030;7.110;2022-07-23T00:51:09;101104.59;;;22.97
41654;BMP280;30790;52.030;7.110;2022-07-23T00:53:35;101099.44;;;23.00
41654;BMP280;30790;52.030;7.110;2022-07-23T00:56:00;101097.47;;;22.96
41654;BMP280;30790;52.030;7.110;2022-07-23T00:58:26;101123.16;;;23.11
41654;BMP280;30790;52.030;7.110;2022-07-23T01:00:51;101080.72;;;22.92
41654;BMP280;30790;52.030;7.110;2022-07-23T01:03:16;101089.31;;;23.01
41654;BMP280;30790;52.030;7.110;2022-07-23T01:05:42;101080.22;;;22.95
41654;BMP280;30790;52.030;7.110;2022-07-23T01:08:07;101079.72;;;22.98
41654;BMP280;30790;52.030;7.110;2022-07-23T01:10:33;101081.03;;;22.96
41654;BMP280;30790;52.030;7.110;2022-07-23T01:13:04;101080.22;;;22.95
41654;BMP280;30790;52.030;7.110;2022-07-23T01:15:30;101080.22;;;22.95
41654;BMP280;30790;52.030;7.110;2022-07-23T01:17:55;101086.34;;;23.02
41654;BMP280;30790;52.030;7.110;2022-07-23T01:20:21;101070.91;;;22.96
41654;BMP280;30790;52.030;7.110;2022-07-23T01:22:47;101082.53;;;23.03
41654;BMP280;30790;52.030;7.110;2022-07-23T01:25:12;101071.75;;;22.97
41654;BMP280;30790;52.030;7.110;2022-07-23T01:27:38;101087.91;;;22.98
41654;BMP280;30790;52.030;7.110;2022-07-23T01:30:04;101110.03;;;23.13
41654;BMP280;30790;52.030;7.110;2022-07-23T01:32:29;101084.94;;;23.00
41654;BMP280;30790;52.030;7.110;2022-07-23T01:34:55;101094.88;;;23.06
41654;BMP280;30790;52.030;7.110;2022-07-23T01:37:21;101107.53;;;23.12
41654;BMP280;30790;52.030;7.110;2022-07-23T01:39:46;101106.72;;;23.11
41654;BMP280;30790;52.030;7.110;2022-07-23T01:42:12;101070.59;;;22.93
41654;BMP280;30790;52.030;7.110;2022-07-23T01:44:37;101076.97;;;22.98
41654;BMP280;30790;52.030;7.110;2022-07-23T01:47:03;101066.78;;;22.94
41654;BMP280;30790;52.030;7.110;2022-07-23T01:49:28;101086.00;;;22.99
41654;BMP280;30790;52.030;7.110;2022-07-23T01:51:54;101076.09;;;22.93
41654;BMP280;30790;52.030;7.110;2022-07-23T01:54:32;101086.84;;;22.99
41654;BMP280;30790;52.030;7.110;2022-07-23T01:56:58;101071.44;;;22.93
41654;BMP280;30790;52.030;7.110;2022-07-23T01:59:25;101076.09;;;22.93
41654;BMP280;30790;52.030;7.110;2022-07-23T02:01:51;101078.06;;;22.97
41654;BMP280;30790;52.030;7.110;2022-07-23T02:04:20;101082.38;;;22.93
41654;BMP280;30790;52.030;7.110;2022-07-23T02:06:47;101112.44;;;23.10
41654;BMP280;30790;52.030;7.110;2022-07-23T02:09:12;101091.56;;;23.04
41654;BMP280;30790;52.030;7.110;2022-07-23T02:11:38;101073.91;;;22.95
41654;BMP280;30790;52.030;7.110;2022-07-23T02:14:04;101080.22;;;22.95
41654;BMP280;30790;52.030;7.110;2022-07-23T02:16:29;101072.78;;;22.91
41654;BMP280;30790;52.030;7.110;2022-07-23T02:18:55;101071.69;;;22.92
41654;BMP280;30790;52.030;7.110;2022-07-23T02:21:20;101106.72;;;23.11
41654;BMP280;30790;52.030;7.110;2022-07-23T02:23:46;101084.19;;;23.04
41654;BMP280;30790;52.030;7.110;2022-07-23T02:26:11;101081.44;;;23.04
41654;BMP280;30790;52.030;7.110;2022-07-23T02:28:37;101067.63;;;22.94
41654;BMP280;30790;52.030;7.110;2022-07-23T02:31:02;101062.66;;;22.91
41654;BMP280;30790;52.030;7.110;2022-07-23T02:33:28;101083.66;;;23.07
41654;BMP280;30790;52.030;7.110;2022-07-23T02:35:54;101085.31;;;23.08
41654;BMP280;30790;52.030;7.110;2022-07-23T02:38:19;101063.22;;;22.93
41654;BMP280;30790;52.030;7.110;2022-07-23T02:40:45;101065.44;;;22.96
41654;BMP280;30790;52.030;7.110;2022-07-23T02:43:10;101047.06;;;22.92
41654;BMP280;30790;52.030;7.110;2022-07-23T02:45:35;101063.63;;;23.02
41654;BMP280;30790;52.030;7.110;2022-07-23T02:48:01;101070.91;;;22.96
41654;BMP280;30790;52.030;7.110;2022-07-23T02:50:26;101061.50;;;22.87
41654;BMP280;30790;52.030;7.110;2022-07-23T02:52:51;101069.28;;;22.95
41654;BMP280;30790;52.030;7.110;2022-07-23T02:55:17;101076.41;;;22.96
41654;BMP280;30790;52.030;7.110;2022-07-23T02:57:42;101053.28;;;22.87
41654;BMP280;30790;52.030;7.110;2022-07-23T03:00:08;101076.47;;;23.01
41654;BMP280;30790;52.030;7.110;2022-07-23T03:02:34;101059.09;;;22.91
41654;BMP280;30790;52.030;7.110;2022-07-23T03:04:59;101053.34;;;22.92
41654;BMP280;30790;52.030;7.110;2022-07-23T03:07:25;101059.66;;;22.93
41654;BMP280;30790;52.030;7.110;2022-07-23T03:09:50;101077.88;;;23.04
41654;BMP280;30790;52.030;7.110;2022-07-23T03:12:15;101069.28;;;22.95
41654;BMP280;30790;52.030;7.110;2022-07-23T03:14:41;101070.03;;;22.91
41654;BMP280;30790;52.030;7.110;2022-07-23T03:17:07;101079.13;;;22.96
41654;BMP280;30790;52.030;7.110;2022-07-23T03:19:32;101076.91;;;22.93
41654;BMP280;30790;52.030;7.110;2022-07-23T03:21:58;101089.66;;;23.04
41654;BMP280;30790;52.030;7.110;2022-07-23T03:24:23;101089.09;;;23.02
41654;BMP280;30790;52.030;7.110;2022-07-23T03:27:08;101071.13;;;22.90
41654;BMP280;30790;52.030;7.110;2022-07-23T03:29:34;101080.72;;;22.92
41654;BMP280;30790;52.030;7.110;2022-07-23T03:31:59;101075.25;;;22.92
41654;BMP280;30790;52.030;7.110;2022-07-23T03:34:24;101063.16;;;22.88
41654;BMP280;30790;52.030;7.110;2022-07-23T03:36:50;101072.00;;;22.95
41654;BMP280;30790;52.030;7.110;2022-07-23T03:39:15;101083.84;;;23.01
41654;BMP280;30790;52.030;7.110;2022-07-23T03:41:41;101074.16;;;22.93
41654;BMP280;30790;52.030;7.110;2022-07-23T03:44:06;101079.13;;;22.96
41654;BMP280;30790;52.030;7.110;2022-07-23T03:46:31;101077.47;;;22.95
41654;BMP280;30790;52.030;7.110;2022-07-23T03:48:57;101078.56;;;22.94
41654;BMP280;30790;52.030;7.110;2022-07-23T03:51:22;101079.13;;;22.96
41654;BMP280;30790;52.030;7.110;2022-07-23T03:53:47;101091.81;;;23.02
41654;BMP280;30790;52.030;7.110;2022-07-23T03:56:14;101067.56;;;22.89
41654;BMP280;30790;52.030;7.110;2022-07-23T03:58:39;101062.84;;;22.85
41654;BMP280;30790;52.030;7.110;2022-07-23T04:01:04;101074.13;;;22.88
41654;BMP280;30790;52.030;7.110;2022-07-23T04:03:30;101066.16;;;22.87
41654;BMP280;30790;52.030;7.110;2022-07-23T04:05:55;101070.56;;;22.88
41654;BMP280;30790;52.030;7.110;2022-07-23T04:08:21;101077.75;;;22.94
41654;BMP280;30790;52.030;7.110;2022-07-23T04:10:47;101076.97;;;22.98
41654;BMP280;30790;52.030;7.110;2022-07-23T04:13:12;101070.88;;;22.91
41654;BMP280;30790;52.030;7.110;2022-07-23T04:15:37;101057.63;;;22.83
41654;BMP280;30790;52.030;7.110;2022-07-23T04:18:03;101069.97;;;22.86
41654;BMP280;30790;52.030;7.110;2022-07-23T04:20:28;101086.19;;;22.92
41654;BMP280;30790;52.030;7.110;2022-07-23T04:22:53;101092.81;;;22.96
41654;BMP280;30790;52.030;7.110;2022-07-23T04:25:19;101094.22;;;22.99
41654;BMP280;30790;52.030;7.110;2022-07-23T04:27:44;101090.66;;;22.98
41654;BMP280;30790;52.030;7.110;2022-07-23T04:30:10;101095.88;;;23.00
41654;BMP280;30790;52.030;7.110;2022-07-23T04:32:35;101101.13;;;23.01
41654;BMP280;30790;52.030;7.110;2022-07-23T04:35:01;101086.53;;;22.96
41654;BMP280;30790;52.030;7.110;2022-07-23T04:37:27;101075.19;;;22.87
41654;BMP280;30790;52.030;7.110;2022-07-23T04:39:52;101076.53;;;22.85
41654;BMP280;30790;52.030;7.110;2022-07-23T04:42:18;101105.53;;;23.02
41654;BMP280;30790;52.030;7.110;2022-07-23T04:44:44;101083.72;;;22.91
41654;BMP280;30790;52.030;7.110;2022-07-23T04:47:09;101100.72;;;22.93
41654;BMP280;30790;52.030;7.110;2022-07-23T04:49:35;101107.09;;;22.98
41654;BMP280;30790;52.030;7.110;2022-07-23T04:52:01;101093.53;;;22.87
41654;BMP280;30790;52.030;7.110;2022-07-23T04:54:26;101110.34;;;22.95
41654;BMP280;30790;52.030;7.110;2022-07-23T04:56:52;101097.22;;;22.97
41654;BMP280;30790;52.030;7.110;2022-07-23T04:59:17;101087.22;;;22.86
41654;BMP280;30790;52.030;7.110;2022-07-23T05:01:43;101085.56;;;22.85
41654;BMP280;30790;52.030;7.110;2022-07-23T05:04:08;101099.13;;;22.97
41654;BMP280;30790;52.030;7.110;2022-07-23T05:06:33;101102.69;;;22.97
41654;BMP280;30790;52.030;7.110;2022-07-23T05:08:59;101082.84;;;22.85
41654;BMP280;30790;52.030;7.110;2022-07-23T05:11:24;101097.91;;;22.88
41654;BMP280;30790;52.030;7.110;2022-07-23T05:13:49;101111.94;;;22.91
41654;BMP280;30790;52.030;7.110;2022-07-23T05:16:16;101106.69;;;22.73
41654;BMP280;30790;52.030;7.110;2022-07-23T05:18:41;101102.03;;;22.51
41654;BMP280;30790;52.030;7.110;2022-07-23T05:21:07;101122.28;;;22.50
41654;BMP280;30790;52.030;7.110;2022-07-23T05:23:32;101123.25;;;22.44
41654;BMP280;30790;52.030;7.110;2022-07-23T05:25:57;101115.47;;;22.36
41654;BMP280;30790;52.030;7.110;2022-07-23T05:28:23;101112.66;;;22.31
41654;BMP280;30790;52.030;7.110;2022-07-23T05:30:48;101129.47;;;22.40
41654;BMP280;30790;52.030;7.110;2022-07-23T05:33:13;101134.56;;;22.48
41654;BMP280;30790;52.030;7.110;2022-07-23T05:35:39;101127.41;;;22.30
41654;BMP280;30790;52.030;7.110;2022-07-23T05:38:04;101129.91;;;21.86
41654;BMP280;30790;52.030;7.110;2022-07-23T05:40:29;101146.38;;;21.75
41654;BMP280;30790;52.030;7.110;2022-07-23T05:42:55;101136.38;;;21.80
41654;BMP280;30790;52.030;7.110;2022-07-23T05:45:20;101137.38;;;21.63
41654;BMP280;30790;52.030;7.110;2022-07-23T05:47:49;101144.66;;;21.57
41654;BMP280;30790;52.030;7.110;2022-07-23T05:50:15;101141.56;;;21.65
41654;BMP280;30790;52.030;7.110;2022-07-23T05:52:41;101149.16;;;21.63
41654;BMP280;30790;52.030;7.110;2022-07-23T05:55:08;101121.81;;;21.35
41654;BMP280;30790;52.030;7.110;2022-07-23T05:57:34;101149.44;;;21.50
41654;BMP280;30790;52.030;7.110;2022-07-23T05:59:59;101139.69;;;21.54
41654;BMP280;30790;52.030;7.110;2022-07-23T06:02:24;101131.66;;;21.36
41654;BMP280;30790;52.030;7.110;2022-07-23T06:04:50;101148.88;;;21.48
41654;BMP280;30790;52.030;7.110;2022-07-23T06:07:15;101174.72;;;21.57
41654;BMP280;30790;52.030;7.110;2022-07-23T06:09:40;101167.78;;;21.38
41654;BMP280;30790;52.030;7.110;2022-07-23T06:12:06;101174.13;;;21.55
41654;BMP280;30790;52.030;7.110;2022-07-23T06:14:31;101175.44;;;21.52
41654;BMP280;30790;52.030;7.110;2022-07-23T06:16:57;101173.72;;;21.35
41654;BMP280;30790;52.030;7.110;2022-07-23T06:19:22;101174.31;;;21.37
41654;BMP280;30790;52.030;7.110;2022-07-23T06:21:47;101174.66;;;21.40
41654;BMP280;30790;52.030;7.110;2022-07-23T06:24:13;101180.38;;;21.39
41654;BMP280;30790;52.030;7.110;2022-07-23T06:26:38;101180.56;;;21.49
41654;BMP280;30790;52.030;7.110;2022-07-23T06:29:03;101154.72;;;21.40
41654;BMP280;30790;52.030;7.110;2022-07-23T06:31:29;101159.81;;;21.36
41654;BMP280;30790;52.030;7.110;2022-07-23T06:33:54;101189.19;;;21.57
41654;BMP280;30790;52.030;7.110;2022-07-23T06:36:19;101190.84;;;21.58
41654;BMP280;30790;52.030;7.110;2022-07-23T06:38:45;101184.91;;;21.62
41654;BMP280;30790;52.030;7.110;2022-07-23T06:41:10;101193.69;;;21.64
41654;BMP280;30790;52.030;7.110;2022-07-23T06:43:35;101186.22;;;21.59
41654;BMP280;30790;52.030;7.110;2022-07-23T06:46:01;101178.16;;;21.64
41654;BMP280;30790;52.030;7.110;2022-07-23T06:48:26;101176.38;;;21.58
41654;BMP280;30790;52.030;7.110;2022-07-23T06:50:52;101189.41;;;21.68
41654;BMP280;30790;52.030;7.110;2022-07-23T06:53:18;101180.19;;;21.57
41654;BMP280;30790;52.030;7.110;2022-07-23T06:55:43;101182.31;;;21.67
41654;BMP280;30790;52.030;7.110;2022-07-23T06:58:08;101195.31;;;21.76
41654;BMP280;30790;52.030;7.110;2022-07-23T07:00:35;101182.31;;;21.67
41654;BMP280;30790;52.030;7.110;2022-07-23T07:03:01;101180.50;;;21.72
41654;BMP280;30790;52.030;7.110;2022-07-23T07:05:26;101183.47;;;21.71
41654;BMP280;30790;52.030;7.110;2022-07-23T07:07:54;101190.53;;;21.83
41654;BMP280;30790;52.030;7.110;2022-07-23T07:10:20;101202.50;;;21.94
41654;BMP280;30790;52.030;7.110;2022-07-23T07:12:45;101204.75;;;21.97
41654;BMP280;30790;52.030;7.110;2022-07-23T07:15:10;101181.59;;;21.88
41654;BMP280;30790;52.030;7.110;2022-07-23T07:17:36;101210.53;;;22.01
41654;BMP280;30790;52.030;7.110;2022-07-23T07:20:02;101197.13;;;21.99
41654;BMP280;30790;52.030;7.110;2022-07-23T07:22:27;101204.13;;;22.07
41654;BMP280;30790;52.030;7.110;2022-07-23T07:24:53;101202.47;;;22.06
41654;BMP280;30790;52.030;7.110;2022-07-23T07:27:18;101193.19;;;22.07
41654;BMP280;30790;52.030;7.110;2022-07-23T07:29:43;101193.19;;;22.07
41654;BMP280;30790;52.030;7.110;2022-07-23T07:32:09;101193.19;;;22.07
41654;BMP280;30790;52.030;7.110;2022-07-23T07:34:34;101193.78;;;22.09
41654;BMP280;30790;52.030;7.110;2022-07-23T07:36:59;101205.38;;;22.16
41654;BMP280;30790;52.030;7.110;2022-07-23T07:39:25;101188.53;;;22.07
41654;BMP280;30790;52.030;7.110;2022-07-23T07:41:50;101208.09;;;22.16
41654;BMP280;30790;52.030;7.110;2022-07-23T07:44:16;101219.16;;;22.21
41654;BMP280;30790;52.030;7.110;2022-07-23T07:46:41;101208.47;;;22.19
41654;BMP280;30790;52.030;7.110;2022-07-23T07:49:06;101192.94;;;22.08
41654;BMP280;30790;52.030;7.110;2022-07-23T07:51:32;101199.31;;;22.14
41654;BMP280;30790;52.030;7.110;2022-07-23T07:53:58;101190.22;;;22.08
41654;BMP280;30790;52.030;7.110;2022-07-23T07:56:23;101200.97;;;22.15
41654;BMP280;30790;52.030;7.110;2022-07-23T07:58:48;101226.03;;;22.24
41654;BMP280;30790;52.030;7.110;2022-07-23T08:01:14;101205.38;;;22.16
41654;BMP280;30790;52.030;7.110;2022-07-23T08:03:39;101225.72;;;22.20
41654;BMP280;30790;52.030;7.110;2022-07-23T08:06:04;101205.88;;;22.13
41654;BMP280;30790;52.030;7.110;2022-07-23T08:08:30;101206.44;;;22.15
41654;BMP280;30790;52.030;7.110;2022-07-23T08:10:55;101226.38;;;22.27
41654;BMP280;30790;52.030;7.110;2022-07-23T08:13:20;101209.75;;;22.17
41654;BMP280;30790;52.030;7.110;2022-07-23T08:15:46;101217.25;;;22.22
41654;BMP280;30790;52.030;7.110;2022-07-23T08:18:11;101214.06;;;22.13
41654;BMP280;30790;52.030;7.110;2022-07-23T08:20:37;101220.22;;;22.20
41654;BMP280;30790;52.030;7.110;2022-07-23T08:23:04;101206.44;;;22.15
41654;BMP280;30790;52.030;7.110;2022-07-23T08:25:48;101221.91;;;22.21
41654;BMP280;30790;52.030;7.110;2022-07-23T08:28:14;101227.78;;;22.30
41654;BMP280;30790;52.030;7.110;2022-07-23T08:30:42;101218.91;;;22.23
41654;BMP280;30790;52.030;7.110;2022-07-23T08:33:13;101216.44;;;22.21
41654;BMP280;30790;52.030;7.110;2022-07-23T08:35:40;101229.69;;;22.29
41654;BMP280;30790;52.030;7.110;2022-07-23T08:38:08;101234.41;;;22.34
41654;BMP280;30790;52.030;7.110;2022-07-23T08:40:36;101215.34;;;22.22
41654;BMP280;30790;52.030;7.110;2022-07-23T08:43:05;101210.72;;;22.23
41654;BMP280;30790;52.030;7.110;2022-07-23T08:45:35;101208.22;;;22.21
41654;BMP280;30790;52.030;7.110;2022-07-23T08:48:01;101229.78;;;22.34
41654;BMP280;30790;52.030;7.110;2022-07-23T08:50:28;101217.34;;;22.27
41654;BMP280;30790;52.030;7.110;2022-07-23T08:52:53;101208.81;;;22.23
41654;BMP280;30790;52.030;7.110;2022-07-23T08:55:20;101219.25;;;22.26
41654;BMP280;30790;52.030;7.110;2022-07-23T08:57:48;101234.75;;;22.37
41654;BMP280;30790;52.030;7.110;2022-07-23T09:00:14;101223.38;;;22.29
41654;BMP280;30790;52.030;7.110;2022-07-23T09:02:41;101234.75;;;22.37
41654;BMP280;30790;52.030;7.110;2022-07-23T09:05:09;101222.56;;;22.28
41654;BMP280;30790;52.030;7.110;2022-07-23T09:07:35;101239.38;;;22.37
41654;BMP280;30790;52.030;7.110;2022-07-23T09:10:09;101236.31;;;22.33
41654;BMP280;30790;52.030;7.110;2022-07-23T09:12:35;101231.34;;;22.30
41654;BMP280;30790;52.030;7.110;2022-07-23T09:15:08;101242.38;;;22.35
41654;BMP280;30790;52.030;7.110;2022-07-23T09:17:40;101232.50;;;22.34
41654;BMP280;30790;52.030;7.110;2022-07-23T09:20:13;101244.09;;;22.41
41654;BMP280;30790;52.030;7.110;2022-07-23T09:22:47;101221.22;;;22.31
41654;BMP280;30790;52.030;7.110;2022-07-23T09:25:17;101225.03;;;22.30
41654;BMP280;30790;52.030;7.110;2022-07-23T09:27:54;101220.66;;;22.29
41654;BMP280;30790;52.030;7.110;2022-07-23T09:30:27;101240.78;;;22.39
41654;BMP280;30790;52.030;7.110;2022-07-23T09:33:07;101254.41;;;22.51
41654;BMP280;30790;52.030;7.110;2022-07-23T09:35:52;101259.06;;;22.50
41654;BMP280;30790;52.030;7.110;2022-07-23T09:38:20;101252.50;;;22.51
41654;BMP280;30790;52.030;7.110;2022-07-23T09:40:47;101219.66;;;22.35
41654;BMP280;30790;52.030;7.110;2022-07-23T09:43:30;101221.56;;;22.34
41654;BMP280;30790;52.030;7.110;2022-07-23T09:46:27;101227.88;;;22.35
41654;BMP280;30790;52.030;7.110;2022-07-23T09:48:56;101222.66;;;22.33
41654;BMP280;30790;52.030;7.110;2022-07-23T09:51:23;101227.88;;;22.35
41654;BMP280;30790;52.030;7.110;2022-07-23T09:53:48;101223.47;;;22.34
41654;BMP280;30790;52.030;7.110;2022-07-23T09:56:14;101237.81;;;22.41
41654;BMP280;30790;52.030;7.110;2022-07-23T09:58:40;101241.38;;;22.41
41654;BMP280;30790;52.030;7.110;2022-07-23T10:01:16;101229.53;;;22.36
41654;BMP280;30790;52.030;7.110;2022-07-23T10:03:42;101238.56;;;22.36
41654;BMP280;30790;52.030;7.110;2022-07-23T10:06:12;101236.50;;;22.43
41654;BMP280;30790;52.030;7.110;2022-07-23T10:08:40;101251.94;;;22.49
41654;BMP280;30790;52.030;7.110;2022-07-23T10:11:07;101238.63;;;22.41
41654;BMP280;30790;52.030;7.110;2022-07-23T10:13:32;101251.44;;;22.52
41654;BMP280;30790;52.030;7.110;2022-07-23T10:16:15;101246.97;;;22.46
41654;BMP280;30790;52.030;7.110;2022-07-23T10:18:40;101224.88;;;22.36
41654;BMP280;30790;52.030;7.110;2022-07-23T10:21:07;101244.81;;;22.48
41654;BMP280;30790;52.030;7.110;2022-07-23T10:23:40;101224.63;;;22.38
41654;BMP280;30790;52.030;7.110;2022-07-23T10:26:20;101232.22;;;22.47
41654;BMP280;30790;52.030;7.110;2022-07-23T10:29:04;101223.22;;;22.35
41654;BMP280;30790;52.030;7.110;2022-07-23T10:31:41;101249.53;;;22.53
41654;BMP280;30790;52.030;7.110;2022-07-23T10:34:17;101225.97;;;22.35
41654;BMP280;30790;52.030;7.110;2022-07-23T10:36:49;101216.09;;;22.34
41654;BMP280;30790;52.030;7.110;2022-07-23T10:39:31;101221.91;;;22.38
41654;BMP280;30790;52.030;7.110;2022-07-23T10:42:17;101225.22;;;22.40
41654;BMP280;30790;52.030;7.110;2022-07-23T10:44:44;101239.09;;;22.50
41654;BMP280;30790;52.030;7.110;2022-07-23T10:47:10;101218.09;;;22.39
41654;BMP280;30790;52.030;7.110;2022-07-23T10:58:03;101244.63;;;22.55
41654;BMP280;30790;52.030;7.110;2022-07-23T11:00:29;101221.06;;;22.37
41654;BMP280;30790;52.030;7.110;2022-07-23T11:03:00;101225.47;;;22.38
41654;BMP280;30790;52.030;7.110;2022-07-23T11:05:40;101225.22;;;22.40
41654;BMP280;30790;52.030;7.110;2022-07-23T11:10:36;101247.13;;;22.57
41654;BMP280;30790;52.030;7.110;2022-07-23T11:24:00;101246.63;;;22.60
41654;BMP280;30790;52.030;7.110;2022-07-23T11:32:17;101226.47;;;22.49
41654;BMP280;30790;52.030;7.110;2022-07-23T11:34:45;101247.44;;;22.60
41654;BMP280;30790;52.030;7.110;2022-07-23T11:37:35;101241.91;;;22.55
41654;BMP280;30790;52.030;7.110;2022-07-23T11:40:12;101214.03;;;22.41
41654;BMP280;30790;52.030;7.110;2022-07-23T11:42:55;101221.47;;;22.46
41654;BMP280;30790;52.030;7.110;2022-07-23T11:45:22;101218.75;;;22.46
41654;BMP280;30790;52.030;7.110;2022-07-23T11:47:48;101225.53;;;22.43
41654;BMP280;30790;52.030;7.110;2022-07-23T11:50:13;101227.81;;;22.46
41654;BMP280;30790;52.030;7.110;2022-07-23T11:52:39;101226.13;;;22.45
41654;BMP280;30790;52.030;7.110;2022-07-23T11:55:07;101228.38;;;22.48
41654;BMP280;30790;52.030;7.110;2022-07-23T11:57:35;101223.88;;;22.42
41654;BMP280;30790;52.030;7.110;2022-07-23T12:02:47;101241.00;;;22.49
41654;BMP280;30790;52.030;7.110;2022-07-23T12:05:21;101255.41;;;22.62
41654;BMP280;30790;52.030;7.110;2022-07-23T12:07:48;101238.97;;;22.45
41654;BMP280;30790;52.030;7.110;2022-07-23T12:10:21;101234.69;;;22.49
41654;BMP280;30790;52.030;7.110;2022-07-23T12:12:49;101219.25;;;22.43
41654;BMP280;30790;52.030;7.110;2022-07-23T12:15:16;101234.44;;;22.50
41654;BMP280;30790;52.030;7.110;2022-07-23T12:17:44;101247.19;;;22.62
41654;BMP280;30790;52.030;7.110;2022-07-23T12:20:13;101232.28;;;22.52
41654;BMP280;30790;52.030;7.110;2022-07-23T12:22:41;101234.44;;;22.50
41654;BMP280;30790;52.030;7.110;2022-07-23T12:25:10;101225.41;;;22.50
41654;BMP280;30790;52.030;7.110;2022-07-23T12:27:36;101204.16;;;22.40
41654;BMP280;30790;52.030;7.110;2022-07-23T12:30:18;101219.09;;;22.49
41654;BMP280;30790;52.030;7.110;2022-07-23T12:32:45;101225.47;;;22.55
41654;BMP280;30790;52.030;7.110;2022-07-23T12:35:12;101212.31;;;22.52
41654;BMP280;30790;52.030;7.110;2022-07-23T12:37:40;101226.06;;;22.57
41654;BMP280;30790;52.030;7.110;2022-07-23T12:43:20;101235.69;;;22.60
41654;BMP280;30790;52.030;7.110;2022-07-23T12:45:54;101227.72;;;22.58
41654;BMP280;30790;52.030;7.110;2022-07-23T12:50:59;101243.47;;;22.68
41654;BMP280;30790;52.030;7.110;2022-07-23T12:53:30;101241.31;;;22.70
41654;BMP280;30790;52.030;7.110;2022-07-23T12:56:05;101234.69;;;22.66
41654;BMP280;30790;52.030;7.110;2022-07-23T12:58:52;101245.69;;;22.71
41654;BMP280;30790;52.030;7.110;2022-07-23T13:06:26;101241.56;;;22.68
41654;BMP280;30790;52.030;7.110;2022-07-23T13:08:51;101225.72;;;22.54
41654;BMP280;30790;52.030;7.110;2022-07-23T13:11:16;101225.72;;;22.54
41654;BMP280;30790;52.030;7.110;2022-07-23T13:13:42;101255.00;;;22.70
41654;BMP280;30790;52.030;7.110;2022-07-23T13:16:07;101247.28;;;22.67
41654;BMP280;30790;52.030;7.110;2022-07-23T13:18:33;101255.81;;;22.70
41654;BMP280;30790;52.030;7.110;2022-07-23T13:20:58;101254.41;;;22.68
41654;BMP280;30790;52.030;7.110;2022-07-23T13:23:27;101264.22;;;22.80
41654;BMP280;30790;52.030;7.110;2022-07-23T13:25:53;101261.25;;;22.82
41654;BMP280;30790;52.030;7.110;2022-07-23T13:28:19;101259.09;;;22.84
41654;BMP280;30790;52.030;7.110;2022-07-23T13:30:46;101255.84;;;22.87
41654;BMP280;30790;52.030;7.110;2022-07-23T13:33:14;101249.81;;;22.85
41654;BMP280;30790;52.030;7.110;2022-07-23T13:35:39;101252.63;;;22.90
41654;BMP280;30790;52.030;7.110;2022-07-23T13:38:05;101257.00;;;22.91
41654;BMP280;30790;52.030;7.110;2022-07-23T13:40:40;101259.19;;;22.89
41654;BMP280;30790;52.030;7.110;2022-07-23T13:43:08;101256.75;;;22.93
41654;BMP280;30790;52.030;7.110;2022-07-23T13:45:34;101248.28;;;22.94
41654;BMP280;30790;52.030;7.110;2022-07-23T13:47:59;101251.94;;;23.00
41654;BMP280;30790;52.030;7.110;2022-07-23T13:50:25;101255.28;;;23.02
41654;BMP280;30790;52.030;7.110;2022-07-23T13:52:50;101249.31;;;23.05
41654;BMP280;30790;52.030;7.110;2022-07-23T13:55:16;101246.31;;;23.06
41654;BMP280;30790;52.030;7.110;2022-07-23T13:57:42;101248.78;;;23.08
41654;BMP280;30790;52.030;7.110;2022-07-23T14:00:09;101240.00;;;23.06
41654;BMP280;30790;52.030;7.110;2022-07-23T14:02:36;101251.22;;;23.04
41654;BMP280;30790;52.030;7.110;2022-07-23T14:05:07;101238.03;;;23.01
41654;BMP280;30790;52.030;7.110;2022-07-23T14:07:33;101232.53;;;23.01
41654;BMP280;30790;52.030;7.110;2022-07-23T14:09:59;101220.84;;;22.89
41654;BMP280;30790;52.030;7.110;2022-07-23T14:12:25;101216.44;;;22.88
41654;BMP280;30790;52.030;7.110;2022-07-23T14:14:50;101222.81;;;22.94
41654;BMP280;30790;52.030;7.110;2022-07-23T14:17:16;101226.41;;;22.94
41654;BMP280;30790;52.030;7.110;2022-07-23T14:19:41;101227.53;;;22.98
41654;BMP280;30790;52.030;7.110;2022-07-23T14:22:07;101204.59;;;22.83
41654;BMP280;30790;52.030;7.110;2022-07-23T14:24:32;101234.19;;;23.02
41654;BMP280;30790;52.030;7.110;2022-07-23T14:27:00;101230.38;;;23.03
41654;BMP280;30790;52.030;7.110;2022-07-23T14:29:25;101230.97;;;23.05
41654;BMP280;30790;52.030;7.110;2022-07-23T14:31:51;101231.47;;;23.02
41654;BMP280;30790;52.030;7.110;2022-07-23T14:34:16;101231.47;;;23.02
41654;BMP280;30790;52.030;7.110;2022-07-23T14:36:41;101220.41;;;22.97